馬祖北竿航空站 - ATIS

METAR RCMT 230000Z 20014KT 7000 FEW012 SCT025 BKN045 27/24 Q1007 NOSIG RMK A2976(F)=

站台狀態:Online
最後更新:2018-06-23 08:45:01